createdAt,value
2022-12-06T00:01:56.488Z,100712.31
2022-12-06T00:04:59.510Z,100701.44
2022-12-06T00:08:02.356Z,100708.75
2022-12-06T00:11:14.205Z,100705.75
2022-12-06T00:14:16.977Z,100712.44
2022-12-06T00:17:19.970Z,100706.88
2022-12-06T00:20:22.568Z,100705.91
2022-12-06T00:23:30.212Z,100704.28
2022-12-06T00:26:39.854Z,100700.94
2022-12-06T00:29:42.791Z,100695.53
2022-12-06T00:32:45.351Z,100692.78
2022-12-06T00:35:56.072Z,100685.31
2022-12-06T00:39:05.235Z,100678.47
2022-12-06T00:42:08.076Z,100685.19
2022-12-06T00:45:10.991Z,100692.81
2022-12-06T00:48:13.857Z,100683.28
2022-12-06T00:51:18.018Z,100673.81
2022-12-06T00:54:20.968Z,100677.50
2022-12-06T00:57:23.630Z,100672.09
2022-12-06T01:00:27.440Z,100665.81
2022-12-06T01:03:34.956Z,100672.22
2022-12-06T01:06:38.486Z,100672.25
2022-12-06T01:09:42.567Z,100661.41
2022-12-06T01:12:45.708Z,100658.38
2022-12-06T01:15:48.301Z,100655.03
2022-12-06T01:18:59.528Z,100649.31
2022-12-06T01:22:02.131Z,100652.47
2022-12-06T01:25:05.464Z,100642.28
2022-12-06T01:28:08.118Z,100636.84
2022-12-06T01:31:11.266Z,100639.56
2022-12-06T01:34:17.143Z,100632.56
2022-12-06T01:37:20.110Z,100638.47
2022-12-06T01:40:22.674Z,100633.37
2022-12-06T01:43:36.355Z,100620.09
2022-12-06T01:46:45.477Z,100619.78
2022-12-06T01:50:04.442Z,100614.84
2022-12-06T01:53:10.935Z,100619.94
2022-12-06T01:56:14.015Z,100621.84
2022-12-06T01:59:17.443Z,100611.31
2022-12-06T02:02:20.798Z,100621.22
2022-12-06T02:05:25.472Z,100612.63
2022-12-06T02:08:29.573Z,100603.06
2022-12-06T02:11:35.512Z,100602.41
2022-12-06T02:14:38.669Z,100593.00
2022-12-06T02:17:50.130Z,100579.44
2022-12-06T02:21:16.428Z,100578.16
2022-12-06T02:24:40.711Z,100582.50
2022-12-06T02:28:18.938Z,100579.94
2022-12-06T02:31:35.098Z,100571.31
2022-12-06T02:34:46.933Z,100567.78
2022-12-06T02:37:52.934Z,100564.34
2022-12-06T02:41:01.108Z,100556.66
2022-12-06T02:44:08.048Z,100548.38
2022-12-06T02:47:12.950Z,100549.19
2022-12-06T02:50:24.858Z,100558.91
2022-12-06T02:53:31.167Z,100566.06
2022-12-06T02:56:35.291Z,100554.12
2022-12-06T02:59:38.246Z,100560.81
2022-12-06T03:02:41.847Z,100563.06
2022-12-06T03:06:22.789Z,100555.06
2022-12-06T03:09:34.935Z,100554.12
2022-12-06T03:12:52.411Z,100549.81
2022-12-06T03:16:00.961Z,100543.59
2022-12-06T03:19:16.122Z,100530.84
2022-12-06T03:22:36.931Z,100536.41
2022-12-06T03:25:44.503Z,100532.13
2022-12-06T03:28:50.440Z,100529.25
2022-12-06T03:31:55.412Z,100519.03
2022-12-06T03:35:03.783Z,100518.53
2022-12-06T03:38:16.077Z,100532.28
2022-12-06T03:41:23.823Z,100534.81
2022-12-06T03:44:26.877Z,100529.28
2022-12-06T03:48:10.855Z,100533.53
2022-12-06T03:51:20.579Z,100530.34
2022-12-06T03:54:23.602Z,100527.94
2022-12-06T03:57:26.191Z,100521.13
2022-12-06T04:00:29.647Z,100526.84
2022-12-06T04:03:32.550Z,100510.41
2022-12-06T04:06:35.276Z,100511.81
2022-12-06T04:09:56.485Z,100504.94
2022-12-06T04:13:02.261Z,100507.81
2022-12-06T04:16:25.587Z,100503.34
2022-12-06T04:19:28.196Z,100501.13
2022-12-06T04:22:49.875Z,100505.25
2022-12-06T04:25:52.436Z,100493.50
2022-12-06T04:29:14.042Z,100506.94
2022-12-06T04:32:35.739Z,100508.75
2022-12-06T04:35:57.380Z,100501.25
2022-12-06T04:39:00.270Z,100489.41
2022-12-06T04:42:22.491Z,100493.38
2022-12-06T04:45:25.197Z,100512.84
2022-12-06T04:48:28.076Z,100509.72
2022-12-06T04:51:30.714Z,100482.75
2022-12-06T04:54:34.654Z,100484.72
2022-12-06T04:57:37.269Z,100494.94
2022-12-06T05:00:44.692Z,100489.09
2022-12-06T05:03:47.382Z,100489.84
2022-12-06T05:06:50.355Z,100471.03
2022-12-06T05:09:53.043Z,100471.03
2022-12-06T05:12:56.158Z,100495.22
2022-12-06T05:16:01.278Z,100507.97
2022-12-06T05:19:04.909Z,100518.09
2022-12-06T05:22:07.543Z,100507.25
2022-12-06T05:25:10.486Z,100504.87
2022-12-06T05:28:13.021Z,100512.25
2022-12-06T05:31:17.469Z,100505.06
2022-12-06T05:34:20.057Z,100491.59
2022-12-06T05:37:23.207Z,100496.22
2022-12-06T05:40:26.112Z,100504.69
2022-12-06T05:43:29.611Z,100495.97
2022-12-06T05:46:32.184Z,100488.63
2022-12-06T05:49:35.079Z,100484.09
2022-12-06T05:52:37.692Z,100479.66
2022-12-06T05:55:40.918Z,100490.44
2022-12-06T05:58:43.651Z,100482.31
2022-12-06T06:01:46.634Z,100498.06
2022-12-06T06:04:49.645Z,100534.72
2022-12-06T06:07:52.315Z,100540.28
2022-12-06T06:10:55.942Z,100513.25
2022-12-06T06:13:58.649Z,100525.06
2022-12-06T06:17:02.008Z,100526.00
2022-12-06T06:20:06.504Z,100532.47
2022-12-06T06:23:11.722Z,100533.81
2022-12-06T06:26:14.926Z,100543.09
2022-12-06T06:29:17.812Z,100543.59
2022-12-06T06:32:21.080Z,100563.09
2022-12-06T06:35:25.064Z,100540.50
2022-12-06T06:38:27.792Z,100540.56
2022-12-06T06:41:31.002Z,100527.56
2022-12-06T06:44:33.641Z,100519.94
2022-12-06T06:47:36.839Z,100515.13
2022-12-06T06:50:39.688Z,100498.72
2022-12-06T06:53:42.791Z,100517.44
2022-12-06T06:56:49.725Z,100513.03
2022-12-06T06:59:53.064Z,100502.03
2022-12-06T07:02:55.750Z,100500.81
2022-12-06T07:06:08.608Z,100501.87
2022-12-06T07:09:11.450Z,100496.72
2022-12-06T07:12:15.382Z,100508.56
2022-12-06T07:15:18.207Z,100492.97
2022-12-06T07:18:22.651Z,100483.19
2022-12-06T07:21:25.545Z,100479.59
2022-12-06T07:24:28.440Z,100484.87
2022-12-06T07:27:36.877Z,100490.19
2022-12-06T07:30:39.919Z,100474.09
2022-12-06T07:33:44.194Z,100507.91
2022-12-06T07:36:47.147Z,100505.56
2022-12-06T07:39:50.022Z,100519.41
2022-12-06T07:43:11.639Z,100526.88
2022-12-06T07:46:14.441Z,100521.22
2022-12-06T07:49:18.412Z,100523.97
2022-12-06T07:52:21.359Z,100526.25
2022-12-06T07:55:24.335Z,100529.97
2022-12-06T07:58:27.005Z,100534.16
2022-12-06T08:01:30.341Z,100546.00
2022-12-06T08:04:33.259Z,100549.72
2022-12-06T08:07:36.011Z,100532.72
2022-12-06T08:10:38.999Z,100557.16
2022-12-06T08:13:41.570Z,100547.69
2022-12-06T08:16:44.489Z,100531.16
2022-12-06T08:19:47.142Z,100548.94
2022-12-06T08:22:50.700Z,100554.28
2022-12-06T08:26:05.263Z,100567.16
2022-12-06T08:29:08.253Z,100553.97
2022-12-06T08:32:11.013Z,100552.88
2022-12-06T08:35:13.895Z,100556.28
2022-12-06T08:38:17.165Z,100542.81
2022-12-06T08:41:39.522Z,100546.63
2022-12-06T08:44:42.116Z,100542.37
2022-12-06T08:47:45.069Z,100551.28
2022-12-06T08:50:47.740Z,100535.16
2022-12-06T08:53:54.239Z,100539.13
2022-12-06T08:56:56.994Z,100549.78
2022-12-06T09:00:00.155Z,100538.63
2022-12-06T09:03:03.019Z,100541.22
2022-12-06T09:06:06.463Z,100529.31
2022-12-06T09:09:11.186Z,100527.69
2022-12-06T09:12:16.136Z,100542.63
2022-12-06T09:15:18.671Z,100528.72
2022-12-06T09:18:21.942Z,100531.66
2022-12-06T09:21:28.886Z,100521.81
2022-12-06T09:24:31.831Z,100527.25
2022-12-06T09:27:34.454Z,100516.06
2022-12-06T09:30:37.676Z,100520.03
2022-12-06T09:33:40.397Z,100519.19
2022-12-06T09:36:58.271Z,100507.75
2022-12-06T09:40:03.817Z,100516.03
2022-12-06T09:43:14.878Z,100515.47
2022-12-06T09:46:36.029Z,100520.53
2022-12-06T09:50:00.919Z,100531.00
2022-12-06T09:53:49.098Z,100530.53
2022-12-06T09:57:00.426Z,100521.91
2022-12-06T10:00:11.610Z,100512.19
2022-12-06T10:03:56.289Z,100515.56
2022-12-06T10:07:24.786Z,100526.81
2022-12-06T10:11:05.369Z,100524.00
2022-12-06T10:14:19.797Z,100513.31
2022-12-06T10:17:52.067Z,100512.53
2022-12-06T10:21:01.377Z,100517.06
2022-12-06T10:24:42.446Z,100523.62
2022-12-06T10:28:06.312Z,100521.16
2022-12-06T10:31:27.267Z,100514.22
2022-12-06T10:36:38.807Z,100507.00
2022-12-06T10:38:19.498Z,100505.81
2022-12-06T10:41:37.803Z,100490.22
2022-12-06T10:44:46.183Z,100496.47
2022-12-06T10:47:49.827Z,100504.53
2022-12-06T10:51:01.853Z,100490.28
2022-12-06T10:54:18.541Z,100493.16
2022-12-06T10:57:30.922Z,100493.22
2022-12-06T11:00:55.287Z,100486.31
2022-12-06T11:04:04.237Z,100484.81
2022-12-06T11:07:20.811Z,100491.13
2022-12-06T11:10:27.410Z,100490.63
2022-12-06T11:13:48.122Z,100505.37
2022-12-06T11:17:14.031Z,100507.84
2022-12-06T11:20:47.981Z,100513.56
2022-12-06T11:23:50.551Z,100515.22
2022-12-06T11:27:02.687Z,100506.97
2022-12-06T11:30:20.215Z,100499.56
2022-12-06T11:33:32.753Z,100497.38
2022-12-06T11:36:35.555Z,100489.97
2022-12-06T11:39:39.685Z,100485.47
2022-12-06T11:42:42.390Z,100492.44
2022-12-06T11:45:46.616Z,100493.81
2022-12-06T11:48:50.249Z,100501.84
2022-12-06T11:51:54.563Z,100508.69
2022-12-06T11:55:00.556Z,100500.91
2022-12-06T11:58:27.078Z,100499.25
2022-12-06T12:01:50.222Z,100498.84
2022-12-06T12:04:56.434Z,100486.19
2022-12-06T12:08:19.989Z,100484.16
2022-12-06T12:11:26.456Z,100481.44
2022-12-06T12:14:36.339Z,100490.06
2022-12-06T12:17:50.152Z,100479.03
2022-12-06T12:20:53.651Z,100477.47
2022-12-06T12:23:57.859Z,100475.91
2022-12-06T12:27:00.523Z,100491.53
2022-12-06T12:30:19.870Z,100485.22
2022-12-06T12:33:24.069Z,100488.81
2022-12-06T12:36:29.248Z,100486.88
2022-12-06T12:39:38.877Z,100485.31
2022-12-06T12:42:42.702Z,100485.84
2022-12-06T12:46:10.401Z,100489.28
2022-12-06T12:49:23.306Z,100488.28
2022-12-06T12:52:38.879Z,100485.94
2022-12-06T12:55:42.273Z,100487.69
2022-12-06T12:58:48.921Z,100481.69
2022-12-06T13:01:56.595Z,100494.59
2022-12-06T13:05:32.532Z,100496.66
2022-12-06T13:08:39.417Z,100480.81
2022-12-06T13:11:48.340Z,100478.41
2022-12-06T13:14:58.206Z,100487.41
2022-12-06T13:18:11.826Z,100485.91
2022-12-06T13:21:24.270Z,100488.09
2022-12-06T13:24:31.559Z,100487.50
2022-12-06T13:27:41.700Z,100494.75
2022-12-06T13:30:45.772Z,100494.47
2022-12-06T13:34:00.355Z,100483.63
2022-12-06T13:37:03.397Z,100495.84
2022-12-06T13:40:27.045Z,100498.53
2022-12-06T13:43:29.617Z,100495.16
2022-12-06T13:46:33.507Z,100499.13
2022-12-06T13:49:48.628Z,100501.22
2022-12-06T13:52:53.995Z,100504.25
2022-12-06T13:56:22.522Z,100509.19
2022-12-06T13:59:25.686Z,100505.09
2022-12-06T14:02:44.605Z,100509.41
2022-12-06T14:09:00.388Z,100503.09
2022-12-06T14:12:16.904Z,100501.28
2022-12-06T14:15:20.364Z,100511.53
2022-12-06T14:18:26.520Z,100504.50
2022-12-06T14:21:35.952Z,100506.13
2022-12-06T14:24:42.164Z,100512.13
2022-12-06T14:27:47.848Z,100515.37
2022-12-06T14:30:51.321Z,100512.34
2022-12-06T14:33:55.729Z,100517.84
2022-12-06T14:37:00.870Z,100521.69
2022-12-06T14:40:44.567Z,100525.34
2022-12-06T14:43:47.611Z,100526.81
2022-12-06T14:46:50.557Z,100520.19
2022-12-06T14:50:20.612Z,100522.31
2022-12-06T14:53:29.328Z,100518.00
2022-12-06T14:56:35.457Z,100522.88
2022-12-06T15:03:08.381Z,100528.44
2022-12-06T15:06:16.322Z,100520.41
2022-12-06T15:09:21.919Z,100526.16
2022-12-06T15:12:46.742Z,100538.75
2022-12-06T15:16:09.145Z,100533.13
2022-12-06T15:19:14.379Z,100528.72
2022-12-06T15:22:25.174Z,100539.47
2022-12-06T15:25:28.299Z,100540.81
2022-12-06T15:28:31.468Z,100540.75
2022-12-06T15:31:36.044Z,100530.62
2022-12-06T15:34:39.003Z,100534.47
2022-12-06T15:37:47.275Z,100537.72
2022-12-06T15:40:55.193Z,100532.66
2022-12-06T15:43:57.821Z,100535.41
2022-12-06T15:47:00.711Z,100535.78
2022-12-06T15:50:04.433Z,100534.50
2022-12-06T15:53:09.696Z,100537.34
2022-12-06T15:56:18.260Z,100539.47
2022-12-06T15:59:21.551Z,100539.50
2022-12-06T16:02:24.278Z,100543.62
2022-12-06T16:05:27.307Z,100541.41
2022-12-06T16:08:29.947Z,100538.22
2022-12-06T16:11:33.011Z,100546.69
2022-12-06T16:14:35.647Z,100545.69
2022-12-06T16:17:38.547Z,100545.84
2022-12-06T16:20:41.497Z,100546.63
2022-12-06T16:24:18.039Z,100549.16
2022-12-06T16:27:20.701Z,100540.56
2022-12-06T16:30:34.590Z,100535.16
2022-12-06T16:33:37.363Z,100548.03
2022-12-06T16:37:00.657Z,100550.88
2022-12-06T16:40:03.478Z,100547.16
2022-12-06T16:43:06.406Z,100562.66
2022-12-06T16:46:36.705Z,100554.00
2022-12-06T16:49:48.802Z,100553.97
2022-12-06T16:52:52.450Z,100548.00
2022-12-06T16:55:55.505Z,100546.91
2022-12-06T16:58:58.809Z,100559.91
2022-12-06T17:02:05.913Z,100555.94
2022-12-06T17:05:18.653Z,100561.94
2022-12-06T17:08:22.295Z,100557.97
2022-12-06T17:11:46.999Z,100566.37
2022-12-06T17:14:50.478Z,100573.69
2022-12-06T17:17:53.259Z,100561.41
2022-12-06T17:20:56.876Z,100558.91
2022-12-06T17:24:05.306Z,100564.03
2022-12-06T17:27:09.576Z,100569.28
2022-12-06T17:30:17.850Z,100570.50
2022-12-06T17:33:21.065Z,100573.38
2022-12-06T17:36:25.339Z,100577.09
2022-12-06T17:39:28.275Z,100579.28
2022-12-06T17:42:49.200Z,100574.34
2022-12-06T17:45:52.580Z,100574.56
2022-12-06T17:48:57.446Z,100575.44
2022-12-06T17:52:00.630Z,100578.94
2022-12-06T17:55:04.524Z,100575.91
2022-12-06T17:58:07.636Z,100578.00
2022-12-06T18:01:10.291Z,100576.75
2022-12-06T18:04:14.300Z,100580.19
2022-12-06T18:07:17.827Z,100580.09
2022-12-06T18:10:21.057Z,100582.72
2022-12-06T18:13:23.755Z,100568.56
2022-12-06T18:16:32.681Z,100565.75
2022-12-06T18:19:35.919Z,100563.75
2022-12-06T18:22:38.935Z,100564.75
2022-12-06T18:25:41.866Z,100561.44
2022-12-06T18:28:55.878Z,100557.59
2022-12-06T18:31:59.224Z,100561.44
2022-12-06T18:35:02.847Z,100560.31
2022-12-06T18:38:05.973Z,100561.50
2022-12-06T18:41:14.623Z,100559.28
2022-12-06T18:44:17.215Z,100548.91
2022-12-06T18:47:20.259Z,100561.69
2022-12-06T18:50:22.937Z,100565.03
2022-12-06T18:53:26.105Z,100570.03
2022-12-06T18:56:32.242Z,100565.84
2022-12-06T18:59:37.709Z,100564.84
2022-12-06T19:02:40.735Z,100559.19
2022-12-06T19:06:02.357Z,100559.59
2022-12-06T19:09:10.197Z,100559.72
2022-12-06T19:12:13.199Z,100558.13
2022-12-06T19:15:17.304Z,100546.03
2022-12-06T19:18:20.351Z,100551.88
2022-12-06T19:21:24.601Z,100548.94
2022-12-06T19:24:29.412Z,100557.03
2022-12-06T19:27:32.587Z,100556.66
2022-12-06T19:30:35.763Z,100558.87
2022-12-06T19:33:43.303Z,100561.66
2022-12-06T19:36:48.461Z,100556.78
2022-12-06T19:39:51.964Z,100554.66
2022-12-06T19:43:13.908Z,100558.44
2022-12-06T19:46:21.546Z,100555.75
2022-12-06T19:49:28.595Z,100557.81
2022-12-06T19:52:31.584Z,100563.34
2022-12-06T19:55:34.766Z,100556.78
2022-12-06T19:58:39.507Z,100559.28
2022-12-06T20:01:44.957Z,100564.47
2022-12-06T20:04:48.804Z,100567.44
2022-12-06T20:07:51.378Z,100556.63
2022-12-06T20:10:54.399Z,100554.06
2022-12-06T20:14:04.781Z,100568.56
2022-12-06T20:17:15.750Z,100555.87
2022-12-06T20:20:18.589Z,100558.47
2022-12-06T20:23:22.775Z,100557.66
2022-12-06T20:26:29.475Z,100557.66
2022-12-06T20:29:32.859Z,100553.28
2022-12-06T20:32:35.450Z,100556.63
2022-12-06T20:35:38.795Z,100553.66
2022-12-06T20:38:42.806Z,100554.97
2022-12-06T20:41:45.926Z,100542.50
2022-12-06T20:44:49.027Z,100551.09
2022-12-06T20:47:53.380Z,100556.69
2022-12-06T20:50:59.409Z,100556.25
2022-12-06T20:54:05.819Z,100557.88
2022-12-06T20:57:08.607Z,100559.56
2022-12-06T21:00:12.921Z,100559.37
2022-12-06T21:03:16.048Z,100567.97
2022-12-06T21:06:20.719Z,100556.16
2022-12-06T21:09:25.432Z,100572.13
2022-12-06T21:12:28.735Z,100569.63
2022-12-06T21:15:33.015Z,100564.41
2022-12-06T21:18:36.245Z,100569.59
2022-12-06T21:21:40.832Z,100569.25
2022-12-06T21:24:44.085Z,100566.06
2022-12-06T21:27:46.914Z,100567.62
2022-12-06T21:30:54.233Z,100555.66
2022-12-06T21:33:57.664Z,100557.16
2022-12-06T21:37:00.634Z,100559.31
2022-12-06T21:40:04.322Z,100562.09
2022-12-06T21:43:08.178Z,100562.06
2022-12-06T21:46:22.934Z,100566.16
2022-12-06T21:49:26.047Z,100565.97
2022-12-06T21:52:28.743Z,100566.50
2022-12-06T21:55:31.777Z,100554.44
2022-12-06T21:58:35.939Z,100563.38
2022-12-06T22:01:39.244Z,100571.12
2022-12-06T22:04:42.178Z,100565.72
2022-12-06T22:07:44.904Z,100559.44
2022-12-06T22:10:48.011Z,100555.97
2022-12-06T22:13:50.688Z,100559.22
2022-12-06T22:16:53.599Z,100563.66
2022-12-06T22:19:56.258Z,100562.34
2022-12-06T22:23:00.488Z,100561.53
2022-12-06T22:26:08.247Z,100563.38
2022-12-06T22:29:11.158Z,100566.63
2022-12-06T22:32:13.810Z,100563.13
2022-12-06T22:35:17.148Z,100563.22
2022-12-06T22:38:19.785Z,100561.72
2022-12-06T22:41:23.815Z,100565.72
2022-12-06T22:44:26.496Z,100564.78
2022-12-06T22:47:29.434Z,100555.75
2022-12-06T22:50:32.046Z,100554.31
2022-12-06T22:53:35.411Z,100560.44
2022-12-06T22:56:40.482Z,100545.69
2022-12-06T22:59:43.329Z,100530.31
2022-12-06T23:02:46.134Z,100540.06
2022-12-06T23:05:57.236Z,100541.00
2022-12-06T23:09:00.042Z,100531.31
2022-12-06T23:12:03.519Z,100521.25
2022-12-06T23:15:06.936Z,100518.78
2022-12-06T23:18:09.846Z,100528.56
2022-12-06T23:21:12.589Z,100523.62
2022-12-06T23:24:16.022Z,100524.03
2022-12-06T23:27:18.653Z,100500.41
2022-12-06T23:30:21.805Z,100528.28
2022-12-06T23:33:24.423Z,100519.53
2022-12-06T23:36:30.060Z,100507.91
2022-12-06T23:39:32.603Z,100506.88
2022-12-06T23:42:35.516Z,100510.25
2022-12-06T23:45:38.192Z,100510.00
2022-12-06T23:48:41.967Z,100513.41
2022-12-06T23:51:45.458Z,100507.25
2022-12-06T23:54:48.367Z,100498.50
2022-12-06T23:57:50.991Z,100492.78
